Time;durP1;ratioP1;P1;durP2;ratioP2;P2;SDS_P1;SDS_P2;PMS_P1;PMS_P2;Temp;Humidity;BMP_temperature;BMP_pressure;BME280_temperature;BME280_humidity;BME280_pressure;Samples;Min_cycle;Max_cycle;Signal;HPM_P1;HPM_P2
2022/12/31 00:01:18;;;;;;;0.47;0.47;;;;;;;;;;4976334;28;20664;-74
2022/12/31 00:03:45;;;;;;;0.70;0.70;;;;;;;;;;4976032;28;20224;-75
2022/12/31 00:06:20;;;;;;;0.50;0.50;;;;;;;;;;4976527;28;20194;-75
2022/12/31 00:08:46;;;;;;;0.50;0.50;;;;;;;;;;4976386;28;20527;-77
2022/12/31 00:11:12;;;;;;;0.40;0.40;;;;;;;;;;4976303;28;20174;-75
2022/12/31 00:13:38;;;;;;;0.50;0.50;;;;;;;;;;4975877;28;20540;-74
2022/12/31 00:16:05;;;;;;;0.50;0.50;;;;;;;;;;4983858;28;20265;-74
2022/12/31 00:18:31;;;;;;;0.50;0.50;;;;;;;;;;4981626;28;20265;-75
2022/12/31 00:20:57;;;;;;;0.50;0.50;;;;;;;;;;4975883;28;20268;-73
2022/12/31 00:23:23;;;;;;;0.60;0.60;;;;;;;;;;4975619;28;20548;-75
2022/12/31 00:25:49;;;;;;;0.50;0.50;;;;;;;;;;4976045;28;20208;-74
2022/12/31 00:28:15;;;;;;;0.60;0.60;;;;;;;;;;4975942;28;20209;-74
2022/12/31 00:30:41;;;;;;;0.50;0.50;;;;;;;;;;4975760;28;20177;-74
2022/12/31 00:33:07;;;;;;;0.50;0.50;;;;;;;;;;4975273;28;20182;-74
2022/12/31 00:35:35;;;;;;;0.57;0.57;;;;;;;;;;4975525;28;20205;-75
2022/12/31 00:38:01;;;;;;;0.60;0.60;;;;;;;;;;4975842;28;20186;-75
2022/12/31 00:40:28;;;;;;;0.53;0.53;;;;;;;;;;4975471;28;20287;-78
2022/12/31 00:42:54;;;;;;;0.60;0.60;;;;;;;;;;4975181;28;20174;-75
2022/12/31 00:45:20;;;;;;;0.60;0.60;;;;;;;;;;4975336;28;20228;-75
2022/12/31 00:47:46;;;;;;;0.50;0.50;;;;;;;;;;4975470;28;20189;-75
2022/12/31 00:50:11;;;;;;;0.50;0.50;;;;;;;;;;4975408;28;20217;-74
2022/12/31 00:52:37;;;;;;;0.53;0.53;;;;;;;;;;4975120;28;20174;-74
2022/12/31 00:55:04;;;;;;;0.60;0.60;;;;;;;;;;4975257;28;20206;-74
2022/12/31 00:57:29;;;;;;;0.60;0.60;;;;;;;;;;4975394;28;20261;-74
2022/12/31 00:59:55;;;;;;;0.43;0.43;;;;;;;;;;4975289;28;20297;-75
2022/12/31 01:02:21;;;;;;;0.57;0.57;;;;;;;;;;4974059;28;20182;-75
2022/12/31 01:04:47;;;;;;;0.60;0.60;;;;;;;;;;4974610;28;20198;-74
2022/12/31 01:07:13;;;;;;;0.60;0.60;;;;;;;;;;4975368;28;20178;-74
2022/12/31 01:09:39;;;;;;;0.50;0.50;;;;;;;;;;4975126;28;20217;-75
2022/12/31 01:12:05;;;;;;;0.60;0.60;;;;;;;;;;4975210;28;20189;-74
2022/12/31 01:14:32;;;;;;;0.60;0.60;;;;;;;;;;4974562;28;20237;-75
2022/12/31 01:16:58;;;;;;;0.60;0.60;;;;;;;;;;4973723;28;20181;-74
2022/12/31 01:19:28;;;;;;;0.53;0.53;;;;;;;;;;4974806;28;20286;-74
2022/12/31 01:21:54;;;;;;;0.50;0.50;;;;;;;;;;4975039;28;20197;-73
2022/12/31 01:24:20;;;;;;;0.50;0.50;;;;;;;;;;4974427;28;20202;-74
2022/12/31 01:26:46;;;;;;;0.50;0.50;;;;;;;;;;4974863;28;20639;-74
2022/12/31 01:29:13;;;;;;;0.40;0.40;;;;;;;;;;4974817;28;20185;-74
2022/12/31 01:31:39;;;;;;;0.50;0.50;;;;;;;;;;4974574;28;20595;-75
2022/12/31 01:34:06;;;;;;;0.50;0.50;;;;;;;;;;4974007;28;20209;-75
2022/12/31 01:36:33;;;;;;;0.43;0.43;;;;;;;;;;4974702;28;20205;-76
2022/12/31 01:39:00;;;;;;;0.60;0.60;;;;;;;;;;4974583;28;20208;-75
2022/12/31 01:41:27;;;;;;;0.60;0.60;;;;;;;;;;4974463;28;20198;-76
2022/12/31 01:43:55;;;;;;;0.50;0.50;;;;;;;;;;4973819;28;20736;-76
2022/12/31 01:46:26;;;;;;;0.60;0.60;;;;;;;;;;4974559;28;20189;-74
2022/12/31 01:48:54;;;;;;;0.50;0.50;;;;;;;;;;4974507;28;20196;-74
2022/12/31 01:51:20;;;;;;;0.43;0.43;;;;;;;;;;4974183;28;20657;-75
2022/12/31 01:53:46;;;;;;;0.60;0.60;;;;;;;;;;4973760;28;20317;-75
2022/12/31 01:56:12;;;;;;;0.60;0.60;;;;;;;;;;4974460;28;20186;-75
2022/12/31 01:58:41;;;;;;;0.50;0.50;;;;;;;;;;4974100;28;20198;-75
2022/12/31 02:01:07;;;;;;;0.50;0.50;;;;;;;;;;4973980;28;20212;-74
2022/12/31 02:03:34;;;;;;;0.60;0.60;;;;;;;;;;4973558;28;20181;-75
2022/12/31 02:06:06;;;;;;;0.50;0.50;;;;;;;;;;4974168;28;20178;-76
2022/12/31 02:08:33;;;;;;;0.40;0.40;;;;;;;;;;4974105;28;20182;-75
2022/12/31 02:10:59;;;;;;;0.60;0.60;;;;;;;;;;4973976;28;20178;-74
2022/12/31 02:13:25;;;;;;;0.50;0.50;;;;;;;;;;4973051;28;20741;-74
2022/12/31 02:16:01;;;;;;;0.50;0.50;;;;;;;;;;4973903;28;20197;-75
2022/12/31 02:18:30;;;;;;;0.60;0.60;;;;;;;;;;4973966;28;20182;-74
2022/12/31 02:21:17;;;;;;;0.50;0.50;;;;;;;;;;4973766;28;20300;-74
2022/12/31 02:24:02;;;;;;;0.53;0.53;;;;;;;;;;4973140;28;20189;-73
2022/12/31 02:26:53;;;;;;;0.67;0.67;;;;;;;;;;4973424;28;20660;-74
2022/12/31 02:29:19;;;;;;;0.57;0.57;;;;;;;;;;4973718;28;20189;-74
2022/12/31 02:31:53;;;;;;;0.60;0.60;;;;;;;;;;4973528;28;20178;-74
2022/12/31 02:34:26;;;;;;;0.60;0.60;;;;;;;;;;4972822;28;20198;-73
2022/12/31 02:36:53;;;;;;;0.50;0.50;;;;;;;;;;4973492;28;20264;-74
2022/12/31 02:39:19;;;;;;;0.70;0.70;;;;;;;;;;4973332;28;20212;-73
2022/12/31 02:41:48;;;;;;;0.60;0.60;;;;;;;;;;4973094;28;20265;-74
2022/12/31 02:44:34;;;;;;;0.60;0.60;;;;;;;;;;4972228;28;20198;-74
2022/12/31 02:47:11;;;;;;;0.60;0.60;;;;;;;;;;4972961;28;20320;-73
2022/12/31 02:49:52;;;;;;;0.60;0.60;;;;;;;;;;4973213;28;20184;-74
2022/12/31 02:52:18;;;;;;;0.50;0.50;;;;;;;;;;4973361;28;20181;-74
2022/12/31 02:54:44;;;;;;;0.60;0.60;;;;;;;;;;4972634;28;20198;-74
2022/12/31 02:57:23;;;;;;;0.53;0.53;;;;;;;;;;4973060;28;20627;-74
2022/12/31 03:02:35;;;;;;;0.60;0.60;;;;;;;;;;4972587;28;20180;-74
2022/12/31 03:05:02;;;;;;;0.40;0.40;;;;;;;;;;4973104;28;20201;-75
2022/12/31 03:07:30;;;;;;;0.40;0.40;;;;;;;;;;4973012;28;20174;-73
2022/12/31 03:09:56;;;;;;;0.40;0.40;;;;;;;;;;4972771;28;20264;-74
2022/12/31 03:15:18;;;;;;;0.60;0.60;;;;;;;;;;4972889;28;20569;-74
2022/12/31 03:17:46;;;;;;;0.70;0.70;;;;;;;;;;4973128;28;20304;-76
2022/12/31 03:22:57;;;;;;;0.50;0.50;;;;;;;;;;4972568;28;20657;-74
2022/12/31 03:25:36;;;;;;;0.50;0.50;;;;;;;;;;4972252;28;20296;-75
2022/12/31 03:28:03;;;;;;;0.50;0.50;;;;;;;;;;4972767;28;20181;-75
2022/12/31 03:30:30;;;;;;;0.50;0.50;;;;;;;;;;4972703;28;20178;-75
2022/12/31 03:32:57;;;;;;;0.60;0.60;;;;;;;;;;4972622;28;20181;-75
2022/12/31 03:35:23;;;;;;;0.50;0.50;;;;;;;;;;4972943;28;20551;-75
2022/12/31 03:37:50;;;;;;;0.50;0.50;;;;;;;;;;4972788;28;20203;-75
2022/12/31 03:40:16;;;;;;;0.50;0.50;;;;;;;;;;4972685;28;20610;-76
2022/12/31 03:42:42;;;;;;;0.33;0.33;;;;;;;;;;4972247;28;20220;-75
2022/12/31 03:45:09;;;;;;;0.60;0.60;;;;;;;;;;4972361;28;20666;-75
2022/12/31 03:47:35;;;;;;;0.60;0.60;;;;;;;;;;4972984;28;20236;-75
2022/12/31 03:50:01;;;;;;;0.40;0.40;;;;;;;;;;4972646;28;20178;-75
2022/12/31 03:52:27;;;;;;;0.50;0.50;;;;;;;;;;4972424;28;20174;-73
2022/12/31 03:54:53;;;;;;;0.50;0.50;;;;;;;;;;4972127;28;20217;-75
2022/12/31 03:57:19;;;;;;;0.50;0.50;;;;;;;;;;4972408;28;20174;-75
2022/12/31 03:59:45;;;;;;;0.50;0.50;;;;;;;;;;4972383;28;20210;-75
2022/12/31 04:02:11;;;;;;;0.50;0.50;;;;;;;;;;4972397;28;20178;-75
2022/12/31 04:04:37;;;;;;;0.50;0.50;;;;;;;;;;4972112;28;20289;-75
2022/12/31 04:07:03;;;;;;;0.50;0.50;;;;;;;;;;4972298;28;20182;-75
2022/12/31 04:09:29;;;;;;;0.40;0.40;;;;;;;;;;4972504;28;20178;-74
2022/12/31 04:11:55;;;;;;;0.60;0.60;;;;;;;;;;4972611;28;20186;-76
2022/12/31 04:14:21;;;;;;;0.50;0.50;;;;;;;;;;4971872;28;20198;-74
2022/12/31 04:16:47;;;;;;;0.60;0.60;;;;;;;;;;4972599;28;20646;-74
2022/12/31 04:19:13;;;;;;;0.60;0.60;;;;;;;;;;4972353;28;20226;-75
2022/12/31 04:21:39;;;;;;;0.50;0.50;;;;;;;;;;4972504;28;20177;-75
2022/12/31 04:24:05;;;;;;;0.40;0.40;;;;;;;;;;4971662;28;20592;-75
2022/12/31 04:26:31;;;;;;;0.50;0.50;;;;;;;;;;4972440;28;20182;-75
2022/12/31 04:28:57;;;;;;;0.50;0.50;;;;;;;;;;4972238;28;20208;-74
2022/12/31 04:31:23;;;;;;;0.60;0.60;;;;;;;;;;4972446;28;20182;-75
2022/12/31 04:33:49;;;;;;;0.50;0.50;;;;;;;;;;4971782;28;20331;-75
2022/12/31 04:36:15;;;;;;;0.50;0.50;;;;;;;;;;4973501;28;20236;-75
2022/12/31 04:38:41;;;;;;;0.60;0.60;;;;;;;;;;4975585;28;20213;-75
2022/12/31 04:41:16;;;;;;;0.50;0.50;;;;;;;;;;4975424;28;20690;-75
2022/12/31 04:43:43;;;;;;;0.50;0.50;;;;;;;;;;4974852;28;20177;-75
2022/12/31 04:46:09;;;;;;;0.53;0.53;;;;;;;;;;4975323;28;20201;-73
2022/12/31 04:48:35;;;;;;;0.50;0.50;;;;;;;;;;4975264;28;20192;-73
2022/12/31 04:51:01;;;;;;;0.60;0.60;;;;;;;;;;4975494;28;20182;-75
2022/12/31 04:53:28;;;;;;;0.50;0.50;;;;;;;;;;4974884;28;20268;-75
2022/12/31 04:55:54;;;;;;;0.60;0.60;;;;;;;;;;4975307;28;20202;-74
2022/12/31 04:58:20;;;;;;;0.57;0.57;;;;;;;;;;4975401;28;20217;-74
2022/12/31 05:00:48;;;;;;;0.40;0.40;;;;;;;;;;4975341;28;20217;-75
2022/12/31 05:03:17;;;;;;;0.60;0.60;;;;;;;;;;4974795;28;20182;-75
2022/12/31 05:05:43;;;;;;;0.60;0.60;;;;;;;;;;4975187;28;20208;-74
2022/12/31 05:08:10;;;;;;;0.50;0.50;;;;;;;;;;4975185;28;20205;-74
2022/12/31 05:10:36;;;;;;;0.50;0.50;;;;;;;;;;4975015;28;20181;-75
2022/12/31 05:13:02;;;;;;;0.50;0.50;;;;;;;;;;4974516;28;20482;-73
2022/12/31 05:15:28;;;;;;;0.70;0.70;;;;;;;;;;4974778;28;20292;-75
2022/12/31 05:17:54;;;;;;;0.60;0.60;;;;;;;;;;4974955;28;20217;-75
2022/12/31 05:20:19;;;;;;;0.70;0.70;;;;;;;;;;4974770;28;20217;-73
2022/12/31 05:22:45;;;;;;;0.50;0.50;;;;;;;;;;4974471;28;20301;-75
2022/12/31 05:25:11;;;;;;;0.50;0.50;;;;;;;;;;4974547;28;20198;-74
2022/12/31 05:27:37;;;;;;;0.50;0.50;;;;;;;;;;4975030;28;20174;-75
2022/12/31 05:30:04;;;;;;;0.57;0.57;;;;;;;;;;4974672;28;20590;-75
2022/12/31 05:32:31;;;;;;;0.40;0.40;;;;;;;;;;4974486;28;20186;-73
2022/12/31 05:34:58;;;;;;;0.60;0.60;;;;;;;;;;4974600;28;20693;-73
2022/12/31 05:37:24;;;;;;;0.50;0.50;;;;;;;;;;4974665;28;20206;-74
2022/12/31 05:39:50;;;;;;;0.50;0.50;;;;;;;;;;4974484;28;20233;-75
2022/12/31 05:42:16;;;;;;;0.50;0.50;;;;;;;;;;4974711;28;20269;-75
2022/12/31 05:44:42;;;;;;;0.40;0.40;;;;;;;;;;4974035;28;20268;-76
2022/12/31 05:47:08;;;;;;;0.47;0.47;;;;;;;;;;4974272;28;20215;-75
2022/12/31 05:49:34;;;;;;;0.50;0.50;;;;;;;;;;4973992;28;20293;-75
2022/12/31 05:52:00;;;;;;;0.53;0.53;;;;;;;;;;4974296;28;20189;-76
2022/12/31 05:54:25;;;;;;;0.50;0.50;;;;;;;;;;4973536;28;20260;-75
2022/12/31 05:56:51;;;;;;;0.60;0.60;;;;;;;;;;4975341;28;20228;-75
2022/12/31 05:59:17;;;;;;;0.60;0.60;;;;;;;;;;4974758;28;20214;-77
2022/12/31 06:01:43;;;;;;;0.60;0.60;;;;;;;;;;4975215;28;20719;-73
2022/12/31 06:04:10;;;;;;;0.60;0.60;;;;;;;;;;4974136;28;20225;-75
2022/12/31 06:06:36;;;;;;;0.43;0.43;;;;;;;;;;4974532;28;20722;-75
2022/12/31 06:09:02;;;;;;;0.50;0.50;;;;;;;;;;4974455;28;20232;-75
2022/12/31 06:11:28;;;;;;;0.67;0.67;;;;;;;;;;4972966;28;20178;-75
2022/12/31 06:13:54;;;;;;;0.47;0.47;;;;;;;;;;4974810;28;20223;-76
2022/12/31 06:16:20;;;;;;;0.50;0.50;;;;;;;;;;4974512;28;20192;-74
2022/12/31 06:18:49;;;;;;;0.60;0.60;;;;;;;;;;4973882;28;20208;-74
2022/12/31 06:21:15;;;;;;;0.47;0.47;;;;;;;;;;4973874;28;20198;-74
2022/12/31 06:23:40;;;;;;;0.40;0.40;;;;;;;;;;4973061;28;20240;-74
2022/12/31 06:26:07;;;;;;;0.50;0.50;;;;;;;;;;4973956;28;20178;-75
2022/12/31 06:28:33;;;;;;;0.50;0.50;;;;;;;;;;4973722;28;20189;-75
2022/12/31 06:31:00;;;;;;;0.53;0.53;;;;;;;;;;4973551;28;20253;-75
2022/12/31 06:33:26;;;;;;;0.43;0.43;;;;;;;;;;4973065;28;20181;-75
2022/12/31 06:35:56;;;;;;;0.50;0.50;;;;;;;;;;4973411;28;20617;-75
2022/12/31 06:38:22;;;;;;;0.53;0.53;;;;;;;;;;4973577;28;20178;-74
2022/12/31 06:40:48;;;;;;;0.53;0.53;;;;;;;;;;4973078;28;20217;-74
2022/12/31 06:43:14;;;;;;;0.50;0.50;;;;;;;;;;4973068;28;20181;-75
2022/12/31 06:45:40;;;;;;;0.40;0.40;;;;;;;;;;4973118;28;20308;-74
2022/12/31 06:48:06;;;;;;;0.50;0.50;;;;;;;;;;4973284;28;20609;-74
2022/12/31 06:50:32;;;;;;;0.40;0.40;;;;;;;;;;4973291;28;20185;-76
2022/12/31 06:52:58;;;;;;;0.50;0.50;;;;;;;;;;4972797;28;20189;-74
2022/12/31 06:55:24;;;;;;;0.47;0.47;;;;;;;;;;4972476;28;20198;-73
2022/12/31 06:57:50;;;;;;;0.50;0.50;;;;;;;;;;4972996;28;20182;-72
2022/12/31 07:00:16;;;;;;;0.50;0.50;;;;;;;;;;4971485;28;20213;-73
2022/12/31 07:03:02;;;;;;;0.60;0.60;;;;;;;;;;4972008;28;20182;-74
2022/12/31 07:06:00;;;;;;;0.47;0.47;;;;;;;;;;4970706;28;20705;-72
2022/12/31 07:08:35;;;;;;;0.50;0.50;;;;;;;;;;4924177;28;20658;-74
2022/12/31 07:11:05;;;;;;;0.60;0.60;;;;;;;;;;4970395;28;20177;-74
2022/12/31 07:13:48;;;;;;;0.50;0.50;;;;;;;;;;4972177;28;20216;-74
2022/12/31 07:16:14;;;;;;;0.60;0.60;;;;;;;;;;4973004;28;20182;-74
2022/12/31 07:18:50;;;;;;;0.60;0.60;;;;;;;;;;4972890;28;20293;-75
2022/12/31 07:21:17;;;;;;;0.50;0.50;;;;;;;;;;4972861;28;20203;-74
2022/12/31 07:23:43;;;;;;;0.60;0.60;;;;;;;;;;4972139;28;20661;-74
2022/12/31 07:26:12;;;;;;;0.60;0.60;;;;;;;;;;4972659;28;20204;-74
2022/12/31 07:29:02;;;;;;;0.50;0.50;;;;;;;;;;4972803;28;20201;-74
2022/12/31 07:31:28;;;;;;;0.60;0.60;;;;;;;;;;4972778;28;20265;-73
2022/12/31 07:33:58;;;;;;;0.50;0.50;;;;;;;;;;4972552;28;20293;-74
2022/12/31 07:36:27;;;;;;;0.40;0.40;;;;;;;;;;4972679;28;20213;-74
2022/12/31 07:38:59;;;;;;;0.50;0.50;;;;;;;;;;4972488;28;20563;-75
2022/12/31 07:41:40;;;;;;;0.50;0.50;;;;;;;;;;4972652;28;20228;-75
2022/12/31 07:44:09;;;;;;;0.60;0.60;;;;;;;;;;4971501;28;20600;-77
2022/12/31 07:46:48;;;;;;;0.60;0.60;;;;;;;;;;4972446;28;20186;-75
2022/12/31 07:49:14;;;;;;;0.50;0.50;;;;;;;;;;4973012;28;20186;-76
2022/12/31 07:51:41;;;;;;;0.50;0.50;;;;;;;;;;4975258;28;20205;-76
2022/12/31 07:54:07;;;;;;;0.40;0.40;;;;;;;;;;4972178;28;20206;-76
2022/12/31 07:56:33;;;;;;;0.40;0.40;;;;;;;;;;4972695;28;20237;-76
2022/12/31 07:59:05;;;;;;;0.40;0.40;;;;;;;;;;4972394;28;20208;-75
2022/12/31 08:01:43;;;;;;;0.50;0.50;;;;;;;;;;4972512;28;20178;-77
2022/12/31 08:04:15;;;;;;;0.40;0.40;;;;;;;;;;4972493;28;20206;-78
2022/12/31 08:07:10;;;;;;;0.50;0.50;;;;;;;;;;4974496;28;20210;-78
2022/12/31 08:10:03;;;;;;;0.60;0.60;;;;;;;;;;4964725;28;20193;-79
2022/12/31 08:12:32;;;;;;;0.50;0.50;;;;;;;;;;4976366;28;20189;-78
2022/12/31 08:14:58;;;;;;;0.50;0.50;;;;;;;;;;4980259;28;20202;-76
2022/12/31 08:17:24;;;;;;;0.50;0.50;;;;;;;;;;4976394;28;20216;-74
2022/12/31 08:19:50;;;;;;;0.50;0.50;;;;;;;;;;4981174;28;20710;-77
2022/12/31 08:22:24;;;;;;;0.40;0.40;;;;;;;;;;4978543;28;20182;-76
2022/12/31 08:25:09;;;;;;;0.40;0.40;;;;;;;;;;4977474;28;20205;-77
2022/12/31 08:27:59;;;;;;;0.50;0.50;;;;;;;;;;4980154;28;20320;-77
2022/12/31 08:30:49;;;;;;;0.50;0.50;;;;;;;;;;4983785;28;20178;-79
2022/12/31 08:33:25;;;;;;;0.40;0.40;;;;;;;;;;4977934;28;20209;-80
2022/12/31 08:35:50;;;;;;;0.40;0.40;;;;;;;;;;4978186;28;20201;-80
2022/12/31 08:38:27;;;;;;;0.33;0.33;;;;;;;;;;4977870;28;20178;-80
2022/12/31 08:41:08;;;;;;;0.30;0.30;;;;;;;;;;4978491;28;20263;-79
2022/12/31 08:43:37;;;;;;;0.37;0.37;;;;;;;;;;4975613;28;20243;-79
2022/12/31 08:46:05;;;;;;;0.30;0.30;;;;;;;;;;4985060;28;20219;-78
2022/12/31 08:48:41;;;;;;;0.30;0.30;;;;;;;;;;4982541;28;20181;-77
2022/12/31 08:51:33;;;;;;;0.40;0.40;;;;;;;;;;4984781;28;20178;-78
2022/12/31 08:53:59;;;;;;;0.30;0.30;;;;;;;;;;4981953;28;20237;-78
2022/12/31 08:56:31;;;;;;;0.30;0.30;;;;;;;;;;4981648;28;20261;-77
2022/12/31 08:59:03;;;;;;;0.30;0.30;;;;;;;;;;4979988;28;20186;-77
2022/12/31 09:01:32;;;;;;;0.40;0.40;;;;;;;;;;4978547;28;20713;-78
2022/12/31 09:04:07;;;;;;;0.40;0.40;;;;;;;;;;4978088;28;20201;-77
2022/12/31 09:06:35;;;;;;;0.30;0.30;;;;;;;;;;4978039;28;20189;-77
2022/12/31 09:09:05;;;;;;;0.30;0.30;;;;;;;;;;4978301;28;20189;-77
2022/12/31 09:11:34;;;;;;;0.40;0.40;;;;;;;;;;4978798;28;20182;-78
2022/12/31 09:14:09;;;;;;;0.40;0.40;;;;;;;;;;4979796;28;20201;-77
2022/12/31 09:16:48;;;;;;;0.40;0.40;;;;;;;;;;4980935;28;20583;-78
2022/12/31 09:19:14;;;;;;;0.40;0.40;;;;;;;;;;4978765;28;20224;-77
2022/12/31 09:21:43;;;;;;;0.40;0.40;;;;;;;;;;4978320;28;20209;-77
2022/12/31 09:24:11;;;;;;;0.40;0.40;;;;;;;;;;4975771;28;20201;-75
2022/12/31 09:26:42;;;;;;;0.40;0.40;;;;;;;;;;4980607;28;20174;-81
2022/12/31 09:29:27;;;;;;;0.40;0.40;;;;;;;;;;4978907;28;20205;-76
2022/12/31 09:31:59;;;;;;;0.30;0.30;;;;;;;;;;4976856;28;20181;-78
2022/12/31 09:34:31;;;;;;;0.40;0.40;;;;;;;;;;4977974;28;20697;-77
2022/12/31 09:37:02;;;;;;;0.37;0.37;;;;;;;;;;4979208;28;20186;-77
2022/12/31 09:39:40;;;;;;;0.40;0.40;;;;;;;;;;4977055;28;20233;-77
2022/12/31 09:42:13;;;;;;;0.30;0.30;;;;;;;;;;4980492;28;20196;-77
2022/12/31 09:44:38;;;;;;;0.40;0.40;;;;;;;;;;4978057;28;20213;-77
2022/12/31 09:47:04;;;;;;;0.40;0.40;;;;;;;;;;4983748;28;20188;-77
2022/12/31 09:49:39;;;;;;;0.40;0.40;;;;;;;;;;4976964;28;20189;-77
2022/12/31 09:52:21;;;;;;;0.37;0.37;;;;;;;;;;4978426;28;20252;-76
2022/12/31 09:55:13;;;;;;;0.33;0.33;;;;;;;;;;4956684;28;20212;-75
2022/12/31 09:57:40;;;;;;;0.40;0.40;;;;;;;;;;4972959;28;20182;-76
2022/12/31 10:00:20;;;;;;;0.30;0.30;;;;;;;;;;4975284;28;20218;-76
2022/12/31 10:02:52;;;;;;;0.40;0.40;;;;;;;;;;4974922;28;20169;-77
2022/12/31 10:05:18;;;;;;;0.50;0.50;;;;;;;;;;4974897;28;20200;-77
2022/12/31 10:07:53;;;;;;;0.40;0.40;;;;;;;;;;4974491;28;20174;-76
2022/12/31 10:10:25;;;;;;;0.50;0.50;;;;;;;;;;4975412;28;20276;-76
2022/12/31 10:13:19;;;;;;;0.50;0.50;;;;;;;;;;4974473;28;20647;-76
2022/12/31 10:16:03;;;;;;;0.37;0.37;;;;;;;;;;4976811;28;20337;-77
2022/12/31 10:18:39;;;;;;;0.43;0.43;;;;;;;;;;4975349;28;20209;-77
2022/12/31 10:21:04;;;;;;;0.30;0.30;;;;;;;;;;4976428;28;20732;-78
2022/12/31 10:23:51;;;;;;;0.50;0.50;;;;;;;;;;4972841;28;20182;-75
2022/12/31 10:26:17;;;;;;;0.60;0.60;;;;;;;;;;4980465;28;20174;-77
2022/12/31 10:28:49;;;;;;;0.50;0.50;;;;;;;;;;4978162;28;20523;-77
2022/12/31 10:31:33;;;;;;;0.40;0.40;;;;;;;;;;4975262;28;20185;-77
2022/12/31 10:34:12;;;;;;;0.40;0.40;;;;;;;;;;4977319;28;20280;-78
2022/12/31 10:36:57;;;;;;;0.50;0.50;;;;;;;;;;4981786;28;20201;-79
2022/12/31 10:39:34;;;;;;;0.40;0.40;;;;;;;;;;4981633;28;20240;-78
2022/12/31 10:42:11;;;;;;;0.40;0.40;;;;;;;;;;4984485;28;20173;-78
2022/12/31 10:44:51;;;;;;;0.40;0.40;;;;;;;;;;4980844;28;20292;-77
2022/12/31 10:47:20;;;;;;;0.53;0.53;;;;;;;;;;4983712;28;20242;-77
2022/12/31 10:50:12;;;;;;;0.57;0.57;;;;;;;;;;4980168;28;20245;-77
2022/12/31 10:53:09;;;;;;;0.50;0.50;;;;;;;;;;4978077;28;20178;-78
2022/12/31 10:55:35;;;;;;;0.60;0.60;;;;;;;;;;4978856;28;20273;-80
2022/12/31 10:58:01;;;;;;;0.40;0.40;;;;;;;;;;4985098;28;20178;-78
2022/12/31 11:00:30;;;;;;;0.40;0.40;;;;;;;;;;4980229;28;20572;-78
2022/12/31 11:03:05;;;;;;;0.50;0.50;;;;;;;;;;4973332;28;20177;-77
2022/12/31 11:05:43;;;;;;;0.40;0.40;;;;;;;;;;4973924;28;20211;-78
2022/12/31 11:08:28;;;;;;;0.50;0.50;;;;;;;;;;4971725;28;20177;-76
2022/12/31 11:11:12;;;;;;;0.30;0.30;;;;;;;;;;4972885;28;20201;-76
2022/12/31 11:13:38;;;;;;;0.50;0.50;;;;;;;;;;4969451;28;20244;-75
2022/12/31 11:16:07;;;;;;;0.40;0.40;;;;;;;;;;4970569;28;20658;-74
2022/12/31 11:18:41;;;;;;;0.30;0.30;;;;;;;;;;4969768;28;20531;-74
2022/12/31 11:21:07;;;;;;;0.40;0.40;;;;;;;;;;4969956;28;20201;-75
2022/12/31 11:23:36;;;;;;;0.30;0.30;;;;;;;;;;4969133;28;20665;-75
2022/12/31 11:26:20;;;;;;;0.47;0.47;;;12.40;1.00;;;;;;4969550;28;20221;-75
2022/12/31 11:28:56;;;;;;;0.30;0.30;;;22.10;1.00;;;;;;4970767;28;20178;-75
2022/12/31 11:31:21;;;;;;;0.40;0.40;;;21.90;1.00;;;;;;4969777;28;20191;-76
2022/12/31 11:34:10;;;;;;;0.40;0.40;;;21.80;1.00;;;;;;4971693;28;20284;-76
2022/12/31 11:36:48;;;;;;;0.30;0.30;;;21.70;1.00;;;;;;4971829;28;20185;-76
2022/12/31 11:39:27;;;;;;;0.40;0.40;;;;;;;;;;4971873;28;20228;-76
2022/12/31 11:41:55;;;;;;;0.37;0.37;;;;;;;;;;4971990;28;20593;-79
2022/12/31 11:44:31;;;;;;;0.30;0.30;;;;;;;;;;4972393;28;20189;-75
2022/12/31 11:47:03;;;;;;;0.40;0.40;;;;;;;;;;4974425;28;20490;-75
2022/12/31 11:49:39;;;;;;;0.40;0.40;;;;;;;;;;4976988;28;20642;-75
2022/12/31 11:52:24;;;;;;;0.40;0.40;;;;;;;;;;4976630;28;20231;-74
2022/12/31 11:54:57;;;;;;;0.33;0.33;;;;;;;;;;4975962;28;20204;-74
2022/12/31 11:57:29;;;;;;;0.30;0.30;;;;;;;;;;4976522;28;20662;-75
2022/12/31 11:59:59;;;;;;;0.40;0.40;;;;;;;;;;4976309;28;20877;-75
2022/12/31 12:02:27;;;;;;;0.40;0.40;;;;;;;;;;4976302;28;20264;-75
2022/12/31 12:04:54;;;;;;;0.30;0.30;;;;;;;;;;4977377;28;20206;-75
2022/12/31 12:07:22;;;;;;;0.37;0.37;;;;;;;;;;4977452;28;20185;-75
2022/12/31 12:09:49;;;;;;;0.40;0.40;;;;;;;;;;4977521;28;20197;-75
2022/12/31 12:12:15;;;;;;;0.40;0.40;;;;;;;;;;4977873;28;20178;-74
2022/12/31 12:14:42;;;;;;;0.30;0.30;;;;;;;;;;4976853;28;20564;-75
2022/12/31 12:17:25;;;;;;;0.40;0.40;;;;;;;;;;4977108;28;20178;-76
2022/12/31 12:19:53;;;;;;;0.40;0.40;;;;;;;;;;4977278;28;20209;-75
2022/12/31 12:22:21;;;;;;;0.40;0.40;;;;;;;;;;4977298;28;20170;-76
2022/12/31 12:24:57;;;;;;;0.50;0.50;;;;;;;;;;4976737;28;20197;-75
2022/12/31 12:27:26;;;;;;;0.50;0.50;;;;;;;;;;4976330;28;20312;-76
2022/12/31 12:29:52;;;;;;;0.47;0.47;;;;;;;;;;4975948;28;20178;-75
2022/12/31 12:32:19;;;;;;;0.43;0.43;;;;;;;;;;4975713;28;20184;-75
2022/12/31 12:34:45;;;;;;;0.33;0.33;;;;;;;;;;4976051;28;20209;-76
2022/12/31 12:37:37;;;;;;;0.40;0.40;;;;;;;;;;4976005;28;20268;-76
2022/12/31 12:40:05;;;;;;;0.47;0.47;;;;;;;;;;4972922;28;20248;-75
2022/12/31 12:42:31;;;;;;;0.30;0.30;;;;;;;;;;4975194;28;20177;-76
2022/12/31 12:45:04;;;;;;;0.40;0.40;;;;;;;;;;4974842;28;20224;-76
2022/12/31 12:47:31;;;;;;;0.40;0.40;;;;;;;;;;4975597;28;20178;-76
2022/12/31 12:49:58;;;;;;;0.40;0.40;;;21.40;1.00;;;;;;4975674;28;20174;-76
2022/12/31 12:52:29;;;;;;;0.50;0.50;;;22.00;1.00;;;;;;4975378;28;20174;-76
2022/12/31 12:55:07;;;;;;;0.50;0.50;;;22.00;1.00;;;;;;4975049;28;20305;-76
2022/12/31 12:57:39;;;;;;;0.50;0.50;;;22.10;1.00;;;;;;4975429;28;20193;-76
2022/12/31 13:00:28;;;;;;;0.43;0.43;;;22.10;1.00;;;;;;4975126;28;20222;-75
2022/12/31 13:03:07;;;;;;;0.40;0.40;;;21.90;1.00;;;;;;4974756;28;20170;-75
2022/12/31 13:05:56;;;;;;;0.40;0.40;;;21.70;1.00;;;;;;4974950;28;20208;-76
2022/12/31 13:08:31;;;;;;;0.30;0.30;;;21.30;1.00;;;;;;4975852;28;20178;-76
2022/12/31 13:11:24;;;;;;;0.40;0.40;;;21.40;1.00;;;;;;4975201;28;20192;-76
2022/12/31 13:13:50;;;;;;;0.40;0.40;;;;;;;;;;4974364;28;20206;-75
2022/12/31 13:16:35;;;;;;;0.30;0.30;;;;;;;;;;4975026;28;20174;-75
2022/12/31 13:19:07;;;;;;;0.30;0.30;;;;;;;;;;4974891;28;20317;-75
2022/12/31 13:21:33;;;;;;;0.30;0.30;;;;;;;;;;4975111;28;20182;-76
2022/12/31 13:23:59;;;;;;;0.40;0.40;;;;;;;;;;4974154;28;20534;-76
2022/12/31 13:26:27;;;;;;;0.40;0.40;;;;;;;;;;4974643;28;20185;-76
2022/12/31 13:28:54;;;;;;;0.30;0.30;;;;;;;;;;4974617;28;20185;-75
2022/12/31 13:31:23;;;;;;;0.30;0.30;;;;;;;;;;4974213;28;20289;-76
2022/12/31 13:34:00;;;;;;;0.40;0.40;;;;;;;;;;4974456;28;20260;-74
2022/12/31 13:36:28;;;;;;;0.40;0.40;;;;;;;;;;4974617;28;20205;-75
2022/12/31 13:38:55;;;;;;;0.37;0.37;;;;;;;;;;4973342;28;20182;-75
2022/12/31 13:41:26;;;;;;;0.30;0.30;;;;;;;;;;4974511;28;20213;-74
2022/12/31 13:44:02;;;;;;;0.30;0.30;;;;;;;;;;4974034;28;20255;-74
2022/12/31 13:46:27;;;;;;;0.30;0.30;;;;;;;;;;4972241;28;20197;-75
2022/12/31 13:48:58;;;;;;;0.30;0.30;;;;;;;;;;4974714;28;20174;-75
2022/12/31 13:51:27;;;;;;;0.33;0.33;;;;;;;;;;4970914;28;20178;-75
2022/12/31 13:53:59;;;;;;;0.30;0.30;;;;;;;;;;4973310;28;20680;-75
2022/12/31 13:56:28;;;;;;;0.30;0.30;;;;;;;;;;4971499;28;20184;-74
2022/12/31 13:59:01;;;;;;;0.30;0.30;;;;;;;;;;4973576;28;20178;-76
2022/12/31 14:01:42;;;;;;;0.30;0.30;;;;;;;;;;4971594;28;20216;-76
2022/12/31 14:04:14;;;;;;;0.30;0.30;;;;;;;;;;4973361;28;20284;-76
2022/12/31 14:06:44;;;;;;;0.40;0.40;;;;;;;;;;4973820;28;20174;-76
2022/12/31 14:09:14;;;;;;;0.40;0.40;;;;;;;;;;4973453;28;20610;-76
2022/12/31 14:11:43;;;;;;;0.33;0.33;;;;;;;;;;4973957;28;20342;-76
2022/12/31 14:14:18;;;;;;;0.30;0.30;;;;;;;;;;4972704;28;20206;-75
2022/12/31 14:17:01;;;;;;;0.30;0.30;;;;;;;;;;4973107;28;20228;-75
2022/12/31 14:19:36;;;;;;;0.30;0.30;;;;;;;;;;4971604;28;20709;-75
2022/12/31 14:22:14;;;;;;;0.30;0.30;;;;;;;;;;4973813;28;20208;-76
2022/12/31 14:24:45;;;;;;;0.30;0.30;;;;;;;;;;4971895;28;20201;-75
2022/12/31 14:27:18;;;;;;;0.33;0.33;;;;;;;;;;4973096;28;20671;-74
2022/12/31 14:29:56;;;;;;;0.30;0.30;;;;;;;;;;4972171;28;20189;-76
2022/12/31 14:32:41;;;;;;;0.30;0.30;;;;;;;;;;4972924;28;20177;-76
2022/12/31 14:35:26;;;;;;;0.30;0.30;;;;;;;;;;4973381;28;20208;-75
2022/12/31 14:37:59;;;;;;;0.37;0.37;;;;;;;;;;4973363;28;20621;-74
2022/12/31 14:40:25;;;;;;;0.37;0.37;;;;;;;;;;4973606;28;20579;-75
2022/12/31 14:43:16;;;;;;;0.30;0.30;;;;;;;;;;4973135;28;20618;-75
2022/12/31 14:46:05;;;;;;;0.40;0.40;;;;;;;;;;4973290;28;20214;-75
2022/12/31 14:48:45;;;;;;;0.30;0.30;;;;;;;;;;4946306;28;20252;-75
2022/12/31 14:51:12;;;;;;;0.40;0.40;;;;;;;;;;4973192;28;20184;-74
2022/12/31 14:53:38;;;;;;;0.40;0.40;;;;;;;;;;4972429;28;20637;-75
2022/12/31 14:56:05;;;;;;;0.40;0.40;;;;;;;;;;4973141;28;20182;-75
2022/12/31 14:58:33;;;;;;;0.40;0.40;;;;;;;;;;4973236;28;20705;-75
2022/12/31 15:01:07;;;;;;;0.30;0.30;;;;;;;;;;4973449;28;20638;-76
2022/12/31 15:03:40;;;;;;;0.40;0.40;;;;;;;;;;4972872;28;20189;-75
2022/12/31 15:06:09;;;;;;;0.30;0.30;;;;;;;;;;4973153;28;20198;-74
2022/12/31 15:08:46;;;;;;;0.40;0.40;;;;;;;;;;4972872;28;20309;-74